sensor_id;sensor_type;location;lat;lon;timestamp;pressure;altitude;pressure_sealevel;temperature;humidity
46722;BME280;32455;43.430;23.136;2023-04-23T00:02:03;98152.81;;;6.20;100.00
46722;BME280;32455;43.430;23.136;2023-04-23T00:04:51;98141.16;;;6.27;100.00
46722;BME280;32455;43.430;23.136;2023-04-23T00:07:37;98146.31;;;6.70;100.00
46722;BME280;32455;43.430;23.136;2023-04-23T00:10:22;98149.69;;;6.92;100.00
46722;BME280;32455;43.430;23.136;2023-04-23T00:13:08;98125.47;;;7.00;100.00
46722;BME280;32455;43.430;23.136;2023-04-23T00:15:53;98143.47;;;7.33;100.00
46722;BME280;32455;43.430;23.136;2023-04-23T00:18:39;98134.66;;;7.46;100.00
46722;BME280;32455;43.430;23.136;2023-04-23T00:21:24;98143.28;;;7.55;100.00
46722;BME280;32455;43.430;23.136;2023-04-23T00:24:11;98133.81;;;7.39;100.00
46722;BME280;32455;43.430;23.136;2023-04-23T00:26:56;98143.88;;;7.43;100.00
46722;BME280;32455;43.430;23.136;2023-04-23T00:29:41;98133.59;;;7.40;100.00
46722;BME280;32455;43.430;23.136;2023-04-23T00:32:27;98140.19;;;7.58;100.00
46722;BME280;32455;43.430;23.136;2023-04-23T00:35:13;98140.81;;;7.53;100.00
46722;BME280;32455;43.430;23.136;2023-04-23T00:37:58;98140.63;;;7.55;100.00
46722;BME280;32455;43.430;23.136;2023-04-23T00:40:44;98152.34;;;7.60;100.00
46722;BME280;32455;43.430;23.136;2023-04-23T00:43:30;98148.22;;;7.51;100.00
46722;BME280;32455;43.430;23.136;2023-04-23T00:46:16;98142.88;;;7.58;100.00
46722;BME280;32455;43.430;23.136;2023-04-23T00:49:01;98145.34;;;7.59;100.00
46722;BME280;32455;43.430;23.136;2023-04-23T00:51:47;98138.72;;;7.35;100.00
46722;BME280;32455;43.430;23.136;2023-04-23T00:54:32;98146.09;;;7.20;100.00
46722;BME280;32455;43.430;23.136;2023-04-23T00:57:17;98141.59;;;7.20;100.00
46722;BME280;32455;43.430;23.136;2023-04-23T01:00:04;98148.91;;;7.05;100.00
46722;BME280;32455;43.430;23.136;2023-04-23T01:02:49;98132.69;;;7.00;100.00
46722;BME280;32455;43.430;23.136;2023-04-23T01:05:35;98126.66;;;6.85;100.00
46722;BME280;32455;43.430;23.136;2023-04-23T01:08:22;98144.09;;;6.81;100.00
46722;BME280;32455;43.430;23.136;2023-04-23T01:11:10;98135.69;;;6.77;100.00
46722;BME280;32455;43.430;23.136;2023-04-23T01:13:58;98134.88;;;6.83;100.00
46722;BME280;32455;43.430;23.136;2023-04-23T01:16:44;98141.47;;;6.87;100.00
46722;BME280;32455;43.430;23.136;2023-04-23T01:19:29;98152.38;;;6.92;100.00
46722;BME280;32455;43.430;23.136;2023-04-23T01:22:15;98144.75;;;6.89;100.00
46722;BME280;32455;43.430;23.136;2023-04-23T01:25:02;98132.84;;;6.92;100.00
46722;BME280;32455;43.430;23.136;2023-04-23T01:27:47;98125.47;;;7.00;100.00
46722;BME280;32455;43.430;23.136;2023-04-23T01:30:33;98135.78;;;7.03;100.00
46722;BME280;32455;43.430;23.136;2023-04-23T01:33:18;98131.00;;;6.86;100.00
46722;BME280;32455;43.430;23.136;2023-04-23T01:36:05;98135.94;;;6.47;100.00
46722;BME280;32455;43.430;23.136;2023-04-23T01:38:51;98135.81;;;6.27;100.00
46722;BME280;32455;43.430;23.136;2023-04-23T01:41:36;98140.69;;;6.17;100.00
46722;BME280;32455;43.430;23.136;2023-04-23T01:44:22;98142.88;;;6.07;100.00
46722;BME280;32455;43.430;23.136;2023-04-23T01:47:07;98135.81;;;5.93;100.00
46722;BME280;32455;43.430;23.136;2023-04-23T01:49:52;98133.00;;;5.80;100.00
46722;BME280;32455;43.430;23.136;2023-04-23T01:52:38;98129.66;;;5.92;100.00
46722;BME280;32455;43.430;23.136;2023-04-23T01:55:24;98144.63;;;6.21;100.00
46722;BME280;32455;43.430;23.136;2023-04-23T01:58:10;98137.03;;;6.25;100.00
46722;BME280;32455;43.430;23.136;2023-04-23T02:00:55;98146.06;;;6.24;100.00
46722;BME280;32455;43.430;23.136;2023-04-23T02:03:41;98152.56;;;6.43;100.00
46722;BME280;32455;43.430;23.136;2023-04-23T02:06:27;98145.53;;;6.42;100.00
46722;BME280;32455;43.430;23.136;2023-04-23T02:09:13;98154.31;;;6.01;100.00
46722;BME280;32455;43.430;23.136;2023-04-23T02:11:58;98138.81;;;5.90;100.00
46722;BME280;32455;43.430;23.136;2023-04-23T02:14:43;98139.66;;;5.69;100.00
46722;BME280;32455;43.430;23.136;2023-04-23T02:17:29;98131.75;;;5.33;100.00
46722;BME280;32455;43.430;23.136;2023-04-23T02:20:14;98129.81;;;5.05;100.00
46722;BME280;32455;43.430;23.136;2023-04-23T02:22:59;98144.06;;;5.34;100.00
46722;BME280;32455;43.430;23.136;2023-04-23T02:25:45;98132.00;;;5.38;100.00
46722;BME280;32455;43.430;23.136;2023-04-23T02:28:31;98126.31;;;5.41;100.00
46722;BME280;32455;43.430;23.136;2023-04-23T02:31:16;98151.59;;;5.51;100.00
46722;BME280;32455;43.430;23.136;2023-04-23T02:34:02;98130.63;;;5.42;100.00
46722;BME280;32455;43.430;23.136;2023-04-23T02:36:47;98147.63;;;5.19;100.00
46722;BME280;32455;43.430;23.136;2023-04-23T02:39:32;98136.44;;;5.09;100.00
46722;BME280;32455;43.430;23.136;2023-04-23T02:42:16;98130.97;;;5.17;100.00
46722;BME280;32455;43.430;23.136;2023-04-23T02:45:01;98126.19;;;5.27;100.00
46722;BME280;32455;43.430;23.136;2023-04-23T02:47:46;98138.28;;;5.51;100.00
46722;BME280;32455;43.430;23.136;2023-04-23T02:50:32;98123.28;;;5.44;100.00
46722;BME280;32455;43.430;23.136;2023-04-23T02:53:17;98132.09;;;5.44;100.00
46722;BME280;32455;43.430;23.136;2023-04-23T02:56:02;98137.00;;;5.47;100.00
46722;BME280;32455;43.430;23.136;2023-04-23T02:58:48;98140.94;;;5.51;100.00
46722;BME280;32455;43.430;23.136;2023-04-23T03:01:33;98148.78;;;5.53;100.00
46722;BME280;32455;43.430;23.136;2023-04-23T03:04:19;98113.09;;;5.11;100.00
46722;BME280;32455;43.430;23.136;2023-04-23T03:07:04;98150.16;;;4.91;100.00
46722;BME280;32455;43.430;23.136;2023-04-23T03:09:49;98137.91;;;4.75;100.00
46722;BME280;32455;43.430;23.136;2023-04-23T03:12:35;98142.84;;;4.78;100.00
46722;BME280;32455;43.430;23.136;2023-04-23T03:15:20;98127.28;;;4.61;100.00
46722;BME280;32455;43.430;23.136;2023-04-23T03:18:06;98133.25;;;4.63;100.00
46722;BME280;32455;43.430;23.136;2023-04-23T03:20:52;98145.03;;;4.75;100.00
46722;BME280;32455;43.430;23.136;2023-04-23T03:23:37;98151.22;;;4.75;100.00
46722;BME280;32455;43.430;23.136;2023-04-23T03:26:23;98129.00;;;4.68;100.00
46722;BME280;32455;43.430;23.136;2023-04-23T03:29:08;98143.09;;;4.98;100.00
46722;BME280;32455;43.430;23.136;2023-04-23T03:31:54;98139.09;;;5.09;100.00
46722;BME280;32455;43.430;23.136;2023-04-23T03:34:40;98141.91;;;5.22;100.00
46722;BME280;32455;43.430;23.136;2023-04-23T03:37:26;98150.50;;;5.03;100.00
46722;BME280;32455;43.430;23.136;2023-04-23T03:40:12;98148.22;;;5.00;100.00
46722;BME280;32455;43.430;23.136;2023-04-23T03:42:57;98156.34;;;4.77;100.00
46722;BME280;32455;43.430;23.136;2023-04-23T03:45:44;98161.25;;;4.59;100.00
46722;BME280;32455;43.430;23.136;2023-04-23T03:48:29;98157.16;;;4.77;100.00
46722;BME280;32455;43.430;23.136;2023-04-23T03:51:15;98141.72;;;4.88;100.00
46722;BME280;32455;43.430;23.136;2023-04-23T03:54:01;98147.25;;;4.86;100.00
46722;BME280;32455;43.430;23.136;2023-04-23T03:56:46;98165.47;;;5.04;100.00
46722;BME280;32455;43.430;23.136;2023-04-23T03:59:31;98150.06;;;5.21;100.00
46722;BME280;32455;43.430;23.136;2023-04-23T04:02:16;98160.56;;;5.44;100.00
46722;BME280;32455;43.430;23.136;2023-04-23T04:05:01;98162.00;;;5.25;100.00
46722;BME280;32455;43.430;23.136;2023-04-23T04:07:47;98165.72;;;5.45;100.00
46722;BME280;32455;43.430;23.136;2023-04-23T04:10:32;98158.53;;;5.46;100.00
46722;BME280;32455;43.430;23.136;2023-04-23T04:13:17;98164.69;;;5.68;100.00
46722;BME280;32455;43.430;23.136;2023-04-23T04:16:03;98155.09;;;5.73;100.00
46722;BME280;32455;43.430;23.136;2023-04-23T04:18:48;98171.28;;;5.93;100.00
46722;BME280;32455;43.430;23.136;2023-04-23T04:21:33;98162.34;;;5.80;100.00
46722;BME280;32455;43.430;23.136;2023-04-23T04:24:19;98173.75;;;5.95;100.00
46722;BME280;32455;43.430;23.136;2023-04-23T04:27:05;98187.25;;;6.15;100.00
46722;BME280;32455;43.430;23.136;2023-04-23T04:29:50;98172.44;;;6.12;100.00
46722;BME280;32455;43.430;23.136;2023-04-23T04:32:36;98191.28;;;6.32;100.00
46722;BME280;32455;43.430;23.136;2023-04-23T04:35:22;98192.19;;;6.46;100.00
46722;BME280;32455;43.430;23.136;2023-04-23T04:38:07;98180.81;;;6.65;100.00
46722;BME280;32455;43.430;23.136;2023-04-23T04:40:57;98193.28;;;6.99;100.00
46722;BME280;32455;43.430;23.136;2023-04-23T04:43:45;98181.03;;;7.12;100.00
46722;BME280;32455;43.430;23.136;2023-04-23T04:46:33;98184.22;;;7.55;100.00
46722;BME280;32455;43.430;23.136;2023-04-23T04:49:18;98194.53;;;7.91;100.00
46722;BME280;32455;43.430;23.136;2023-04-23T04:52:04;98201.13;;;8.22;100.00
46722;BME280;32455;43.430;23.136;2023-04-23T04:54:49;98203.41;;;8.25;100.00
46722;BME280;32455;43.430;23.136;2023-04-23T04:57:34;98212.91;;;8.41;100.00
46722;BME280;32455;43.430;23.136;2023-04-23T05:00:25;98212.06;;;8.53;100.00
46722;BME280;32455;43.430;23.136;2023-04-23T05:03:13;98215.31;;;8.69;100.00
46722;BME280;32455;43.430;23.136;2023-04-23T05:05:59;98204.41;;;8.64;100.00
46722;BME280;32455;43.430;23.136;2023-04-23T05:08:44;98219.44;;;8.78;100.00
46722;BME280;32455;43.430;23.136;2023-04-23T05:11:32;98219.03;;;8.74;100.00
46722;BME280;32455;43.430;23.136;2023-04-23T05:14:19;98214.03;;;8.91;100.00
46722;BME280;32455;43.430;23.136;2023-04-23T05:17:04;98223.75;;;8.79;100.00
46722;BME280;32455;43.430;23.136;2023-04-23T05:19:49;98209.13;;;8.75;100.00
46722;BME280;32455;43.430;23.136;2023-04-23T05:22:39;98224.13;;;8.89;100.00
46722;BME280;32455;43.430;23.136;2023-04-23T05:25:31;98200.47;;;8.80;100.00
46722;BME280;32455;43.430;23.136;2023-04-23T05:28:18;98209.09;;;8.82;100.00
46722;BME280;32455;43.430;23.136;2023-04-23T05:31:03;98229.63;;;9.08;100.00
46722;BME280;32455;43.430;23.136;2023-04-23T05:33:48;98235.81;;;9.15;100.00
46722;BME280;32455;43.430;23.136;2023-04-23T05:36:34;98230.44;;;9.21;100.00
46722;BME280;32455;43.430;23.136;2023-04-23T05:39:19;98230.03;;;9.18;100.00
46722;BME280;32455;43.430;23.136;2023-04-23T05:42:04;98243.59;;;9.30;100.00
46722;BME280;32455;43.430;23.136;2023-04-23T05:44:49;98228.16;;;9.18;100.00
46722;BME280;32455;43.430;23.136;2023-04-23T05:47:35;98242.31;;;9.39;100.00
46722;BME280;32455;43.430;23.136;2023-04-23T05:50:20;98247.19;;;9.55;100.00
46722;BME280;32455;43.430;23.136;2023-04-23T05:53:06;98233.53;;;9.18;100.00
46722;BME280;32455;43.430;23.136;2023-04-23T05:55:51;98230.53;;;9.46;100.00
46722;BME280;32455;43.430;23.136;2023-04-23T05:58:37;98220.75;;;9.59;100.00
46722;BME280;32455;43.430;23.136;2023-04-23T06:01:23;98230.88;;;9.88;100.00
46722;BME280;32455;43.430;23.136;2023-04-23T06:04:08;98230.53;;;10.10;100.00
46722;BME280;32455;43.430;23.136;2023-04-23T06:06:54;98228.31;;;10.32;100.00
46722;BME280;32455;43.430;23.136;2023-04-23T06:09:39;98216.59;;;10.26;100.00
46722;BME280;32455;43.430;23.136;2023-04-23T06:12:24;98214.19;;;10.61;100.00
46722;BME280;32455;43.430;23.136;2023-04-23T06:15:09;98226.94;;;10.91;100.00
46722;BME280;32455;43.430;23.136;2023-04-23T06:17:55;98211.84;;;10.71;100.00
46722;BME280;32455;43.430;23.136;2023-04-23T06:20:41;98228.06;;;11.01;100.00
46722;BME280;32455;43.430;23.136;2023-04-23T06:23:26;98212.97;;;11.00;100.00
46722;BME280;32455;43.430;23.136;2023-04-23T06:26:12;98208.09;;;11.27;100.00
46722;BME280;32455;43.430;23.136;2023-04-23T06:28:57;98223.09;;;11.53;100.00
46722;BME280;32455;43.430;23.136;2023-04-23T06:31:42;98222.47;;;11.51;100.00
46722;BME280;32455;43.430;23.136;2023-04-23T06:34:27;98223.13;;;11.65;100.00
46722;BME280;32455;43.430;23.136;2023-04-23T06:37:13;98221.44;;;12.13;100.00
46722;BME280;32455;43.430;23.136;2023-04-23T06:39:58;98212.38;;;12.07;100.00
46722;BME280;32455;43.430;23.136;2023-04-23T06:42:43;98217.63;;;12.56;100.00
46722;BME280;32455;43.430;23.136;2023-04-23T06:45:30;98217.25;;;12.75;100.00
46722;BME280;32455;43.430;23.136;2023-04-23T06:48:16;98221.72;;;12.93;100.00
46722;BME280;32455;43.430;23.136;2023-04-23T06:51:02;98226.75;;;12.90;100.00
46722;BME280;32455;43.430;23.136;2023-04-23T06:53:47;98226.34;;;13.10;100.00
46722;BME280;32455;43.430;23.136;2023-04-23T06:56:33;98215.44;;;13.28;100.00
46722;BME280;32455;43.430;23.136;2023-04-23T06:59:18;98216.47;;;13.27;100.00
46722;BME280;32455;43.430;23.136;2023-04-23T07:02:03;98230.75;;;13.51;100.00
46722;BME280;32455;43.430;23.136;2023-04-23T07:04:48;98217.13;;;13.58;100.00
46722;BME280;32455;43.430;23.136;2023-04-23T07:07:33;98221.41;;;13.70;100.00
46722;BME280;32455;43.430;23.136;2023-04-23T07:10:21;98230.78;;;13.96;100.00
46722;BME280;32455;43.430;23.136;2023-04-23T07:13:07;98232.03;;;14.06;99.64
46722;BME280;32455;43.430;23.136;2023-04-23T07:15:52;98221.88;;;14.13;100.00
46722;BME280;32455;43.430;23.136;2023-04-23T07:18:38;98222.06;;;14.40;99.87
46722;BME280;32455;43.430;23.136;2023-04-23T07:21:23;98219.69;;;14.43;96.78
46722;BME280;32455;43.430;23.136;2023-04-23T07:24:11;98237.00;;;14.59;97.78
46722;BME280;32455;43.430;23.136;2023-04-23T07:26:56;98228.78;;;14.71;95.90
46722;BME280;32455;43.430;23.136;2023-04-23T07:29:42;98236.22;;;14.81;94.68
46722;BME280;32455;43.430;23.136;2023-04-23T07:32:28;98226.88;;;14.88;96.37
46722;BME280;32455;43.430;23.136;2023-04-23T07:35:13;98234.66;;;14.85;96.77
46722;BME280;32455;43.430;23.136;2023-04-23T07:37:58;98224.91;;;15.22;95.96
46722;BME280;32455;43.430;23.136;2023-04-23T07:40:44;98215.53;;;15.30;94.31
46722;BME280;32455;43.430;23.136;2023-04-23T07:43:29;98207.41;;;15.30;96.07
46722;BME280;32455;43.430;23.136;2023-04-23T07:46:15;98223.69;;;15.57;91.87
46722;BME280;32455;43.430;23.136;2023-04-23T07:48:59;98218.28;;;15.57;93.26
46722;BME280;32455;43.430;23.136;2023-04-23T07:51:44;98223.94;;;15.56;94.16
46722;BME280;32455;43.430;23.136;2023-04-23T07:54:28;98205.56;;;15.36;94.49
46722;BME280;32455;43.430;23.136;2023-04-23T07:57:16;98218.31;;;15.62;93.00
46722;BME280;32455;43.430;23.136;2023-04-23T08:00:02;98229.72;;;15.86;87.68
46722;BME280;32455;43.430;23.136;2023-04-23T08:02:47;98221.34;;;15.88;89.32
46722;BME280;32455;43.430;23.136;2023-04-23T08:05:32;98210.09;;;15.74;87.13
46722;BME280;32455;43.430;23.136;2023-04-23T08:08:17;98213.72;;;15.63;91.83
46722;BME280;32455;43.430;23.136;2023-04-23T08:11:04;98212.72;;;15.91;91.69
46722;BME280;32455;43.430;23.136;2023-04-23T08:13:49;98214.53;;;16.12;93.14
46722;BME280;32455;43.430;23.136;2023-04-23T08:16:34;98203.19;;;16.15;93.02
46722;BME280;32455;43.430;23.136;2023-04-23T08:19:20;98201.13;;;16.27;90.55
46722;BME280;32455;43.430;23.136;2023-04-23T08:22:05;98208.28;;;16.44;92.92
46722;BME280;32455;43.430;23.136;2023-04-23T08:24:50;98198.22;;;16.39;93.31
46722;BME280;32455;43.430;23.136;2023-04-23T08:27:35;98196.09;;;16.46;91.42
46722;BME280;32455;43.430;23.136;2023-04-23T08:30:21;98199.78;;;16.67;93.12
46722;BME280;32455;43.430;23.136;2023-04-23T08:33:06;98194.41;;;16.72;87.48
46722;BME280;32455;43.430;23.136;2023-04-23T08:35:52;98201.41;;;16.68;87.22
46722;BME280;32455;43.430;23.136;2023-04-23T08:38:37;98206.00;;;16.63;82.89
46722;BME280;32455;43.430;23.136;2023-04-23T08:41:33;98204.31;;;16.94;86.08
46722;BME280;32455;43.430;23.136;2023-04-23T08:44:22;98195.00;;;16.80;84.25
46722;BME280;32455;43.430;23.136;2023-04-23T08:47:10;98196.84;;;16.74;81.96
46722;BME280;32455;43.430;23.136;2023-04-23T08:49:58;98190.75;;;16.99;73.04
46722;BME280;32455;43.430;23.136;2023-04-23T08:52:51;98187.53;;;17.02;68.22
46722;BME280;32455;43.430;23.136;2023-04-23T08:55:37;98200.59;;;17.05;67.85
46722;BME280;32455;43.430;23.136;2023-04-23T08:58:23;98188.47;;;17.33;71.28
46722;BME280;32455;43.430;23.136;2023-04-23T09:01:09;98192.06;;;17.44;66.22
46722;BME280;32455;43.430;23.136;2023-04-23T09:03:55;98186.25;;;17.20;69.31
46722;BME280;32455;43.430;23.136;2023-04-23T09:06:42;98188.25;;;17.45;68.35
46722;BME280;32455;43.430;23.136;2023-04-23T09:09:29;98178.94;;;17.25;66.73
46722;BME280;32455;43.430;23.136;2023-04-23T09:12:14;98179.22;;;17.29;67.98
46722;BME280;32455;43.430;23.136;2023-04-23T09:15:02;98169.44;;;17.23;67.50
46722;BME280;32455;43.430;23.136;2023-04-23T09:17:53;98174.19;;;17.73;66.32
46722;BME280;32455;43.430;23.136;2023-04-23T09:20:39;98162.03;;;17.91;58.59
46722;BME280;32455;43.430;23.136;2023-04-23T09:23:25;98174.81;;;18.01;61.87
46722;BME280;32455;43.430;23.136;2023-04-23T09:26:19;98173.19;;;18.00;59.02
46722;BME280;32455;43.430;23.136;2023-04-23T09:29:15;98172.34;;;17.74;63.72
46722;BME280;32455;43.430;23.136;2023-04-23T09:32:07;98172.09;;;18.06;62.22
46722;BME280;32455;43.430;23.136;2023-04-23T09:34:55;98164.75;;;18.17;62.63
46722;BME280;32455;43.430;23.136;2023-04-23T09:37:45;98153.88;;;18.17;61.60
46722;BME280;32455;43.430;23.136;2023-04-23T09:40:34;98158.47;;;18.37;57.39
46722;BME280;32455;43.430;23.136;2023-04-23T09:43:20;98155.22;;;18.35;61.84
46722;BME280;32455;43.430;23.136;2023-04-23T09:46:05;98166.66;;;18.16;57.08
46722;BME280;32455;43.430;23.136;2023-04-23T09:48:50;98154.13;;;18.36;56.41
46722;BME280;32455;43.430;23.136;2023-04-23T09:51:37;98148.97;;;18.34;58.85
46722;BME280;32455;43.430;23.136;2023-04-23T09:54:24;98150.31;;;18.32;57.60
46722;BME280;32455;43.430;23.136;2023-04-23T09:57:10;98142.97;;;18.52;55.85
46722;BME280;32455;43.430;23.136;2023-04-23T09:59:56;98143.25;;;18.36;54.44
46722;BME280;32455;43.430;23.136;2023-04-23T10:02:49;98139.16;;;18.48;54.77
46722;BME280;32455;43.430;23.136;2023-04-23T10:05:39;98140.50;;;18.41;59.59
46722;BME280;32455;43.430;23.136;2023-04-23T10:08:26;98148.94;;;18.65;58.15
46722;BME280;32455;43.430;23.136;2023-04-23T10:11:11;98132.88;;;18.58;53.38
46722;BME280;32455;43.430;23.136;2023-04-23T10:13:56;98125.25;;;18.65;54.41
46722;BME280;32455;43.430;23.136;2023-04-23T10:16:43;98123.34;;;18.71;57.66
46722;BME280;32455;43.430;23.136;2023-04-23T10:19:31;98116.22;;;18.90;60.97
46722;BME280;32455;43.430;23.136;2023-04-23T10:22:18;98109.88;;;19.05;55.42
46722;BME280;32455;43.430;23.136;2023-04-23T10:25:09;98114.09;;;18.72;56.18
46722;BME280;32455;43.430;23.136;2023-04-23T10:27:56;98109.47;;;18.57;56.87
46722;BME280;32455;43.430;23.136;2023-04-23T10:30:43;98113.56;;;18.70;55.10
46722;BME280;32455;43.430;23.136;2023-04-23T10:33:30;98105.09;;;18.66;56.78
46722;BME280;32455;43.430;23.136;2023-04-23T10:36:16;98102.66;;;18.80;53.01
46722;BME280;32455;43.430;23.136;2023-04-23T10:39:00;98083.84;;;18.79;53.76
46722;BME280;32455;43.430;23.136;2023-04-23T10:41:50;98080.75;;;19.00;57.61
46722;BME280;32455;43.430;23.136;2023-04-23T10:44:38;98093.91;;;19.38;52.13
46722;BME280;32455;43.430;23.136;2023-04-23T10:47:23;98084.69;;;19.78;52.76
46722;BME280;32455;43.430;23.136;2023-04-23T10:50:19;98087.63;;;18.88;51.44
46722;BME280;32455;43.430;23.136;2023-04-23T10:53:18;98087.63;;;18.88;53.79
46722;BME280;32455;43.430;23.136;2023-04-23T10:56:06;98078.13;;;19.35;53.06
46722;BME280;32455;43.430;23.136;2023-04-23T10:58:51;98080.81;;;19.40;49.44
46722;BME280;32455;43.430;23.136;2023-04-23T11:01:38;98066.53;;;19.58;52.55
46722;BME280;32455;43.430;23.136;2023-04-23T11:04:26;98071.25;;;19.47;49.13
46722;BME280;32455;43.430;23.136;2023-04-23T11:07:12;98069.91;;;19.45;51.50
46722;BME280;32455;43.430;23.136;2023-04-23T11:10:00;98065.88;;;19.76;49.73
46722;BME280;32455;43.430;23.136;2023-04-23T11:12:55;98055.69;;;19.53;49.95
46722;BME280;32455;43.430;23.136;2023-04-23T11:15:41;98059.53;;;19.02;50.26
46722;BME280;32455;43.430;23.136;2023-04-23T11:18:26;98062.84;;;18.94;51.04
46722;BME280;32455;43.430;23.136;2023-04-23T11:21:12;98063.88;;;19.53;50.60
46722;BME280;32455;43.430;23.136;2023-04-23T11:24:01;98061.66;;;19.55;51.72
46722;BME280;32455;43.430;23.136;2023-04-23T11:26:47;98063.47;;;18.76;50.14
46722;BME280;32455;43.430;23.136;2023-04-23T11:29:38;98067.13;;;18.20;53.51
46722;BME280;32455;43.430;23.136;2023-04-23T11:32:26;98053.59;;;18.90;51.19
46722;BME280;32455;43.430;23.136;2023-04-23T11:35:13;98057.56;;;19.52;50.22
46722;BME280;32455;43.430;23.136;2023-04-23T11:37:58;98060.41;;;19.37;47.70
46722;BME280;32455;43.430;23.136;2023-04-23T11:40:45;98068.84;;;19.41;46.65
46722;BME280;32455;43.430;23.136;2023-04-23T11:43:31;98050.78;;;19.50;47.67
46722;BME280;32455;43.430;23.136;2023-04-23T11:46:16;98055.00;;;19.27;48.21
46722;BME280;32455;43.430;23.136;2023-04-23T11:49:02;98047.00;;;19.01;51.71
46722;BME280;32455;43.430;23.136;2023-04-23T11:51:47;98042.97;;;18.94;48.97
46722;BME280;32455;43.430;23.136;2023-04-23T11:54:32;98056.97;;;19.21;50.28
46722;BME280;32455;43.430;23.136;2023-04-23T11:57:19;98052.44;;;19.46;50.48
46722;BME280;32455;43.430;23.136;2023-04-23T12:00:15;98049.00;;;19.30;50.31
46722;BME280;32455;43.430;23.136;2023-04-23T12:03:02;98043.38;;;19.16;49.60
46722;BME280;32455;43.430;23.136;2023-04-23T12:05:49;98039.56;;;19.62;50.00
46722;BME280;32455;43.430;23.136;2023-04-23T12:08:35;98027.00;;;19.61;50.40
46722;BME280;32455;43.430;23.136;2023-04-23T12:11:22;98025.63;;;19.24;47.93
46722;BME280;32455;43.430;23.136;2023-04-23T12:14:09;98025.56;;;19.34;48.42
46722;BME280;32455;43.430;23.136;2023-04-23T12:16:55;98018.00;;;19.21;48.13
46722;BME280;32455;43.430;23.136;2023-04-23T12:19:42;98019.94;;;19.20;47.35
46722;BME280;32455;43.430;23.136;2023-04-23T12:22:28;98008.97;;;18.86;48.94
46722;BME280;32455;43.430;23.136;2023-04-23T12:25:14;98002.81;;;19.15;46.48
46722;BME280;32455;43.430;23.136;2023-04-23T12:28:00;98010.31;;;19.33;46.29
46722;BME280;32455;43.430;23.136;2023-04-23T12:30:47;98007.94;;;19.61;47.72
46722;BME280;32455;43.430;23.136;2023-04-23T12:33:45;97987.50;;;19.58;47.05
46722;BME280;32455;43.430;23.136;2023-04-23T12:36:30;97995.38;;;19.94;47.52
46722;BME280;32455;43.430;23.136;2023-04-23T12:39:29;97986.94;;;20.43;46.20
46722;BME280;32455;43.430;23.136;2023-04-23T12:42:16;97975.56;;;20.60;45.31
46722;BME280;32455;43.430;23.136;2023-04-23T12:45:08;97977.06;;;20.71;43.00
46722;BME280;32455;43.430;23.136;2023-04-23T12:47:54;97973.94;;;20.59;43.97
46722;BME280;32455;43.430;23.136;2023-04-23T12:50:39;97969.81;;;20.81;42.20
46722;BME280;32455;43.430;23.136;2023-04-23T12:53:26;97959.84;;;20.71;44.71
46722;BME280;32455;43.430;23.136;2023-04-23T12:56:11;97974.06;;;20.92;42.32
46722;BME280;32455;43.430;23.136;2023-04-23T12:58:58;97961.84;;;20.65;43.14
46722;BME280;32455;43.430;23.136;2023-04-23T13:01:45;97957.19;;;20.66;41.81
46722;BME280;32455;43.430;23.136;2023-04-23T13:04:33;97956.47;;;20.79;45.24
46722;BME280;32455;43.430;23.136;2023-04-23T13:07:19;97947.59;;;20.49;43.26
46722;BME280;32455;43.430;23.136;2023-04-23T13:10:05;97937.19;;;20.89;42.92
46722;BME280;32455;43.430;23.136;2023-04-23T13:12:51;97938.69;;;20.82;43.07
46722;BME280;32455;43.430;23.136;2023-04-23T13:15:36;97935.88;;;20.87;46.38
46722;BME280;32455;43.430;23.136;2023-04-23T13:18:22;97934.34;;;20.99;46.18
46722;BME280;32455;43.430;23.136;2023-04-23T13:21:08;97930.72;;;21.04;41.49
46722;BME280;32455;43.430;23.136;2023-04-23T13:23:55;97935.94;;;21.19;42.67
46722;BME280;32455;43.430;23.136;2023-04-23T13:26:41;97931.47;;;20.91;41.81
46722;BME280;32455;43.430;23.136;2023-04-23T13:29:26;97940.50;;;21.24;40.26
46722;BME280;32455;43.430;23.136;2023-04-23T13:32:11;97942.69;;;21.08;40.69
46722;BME280;32455;43.430;23.136;2023-04-23T13:34:56;97938.28;;;21.26;41.37
46722;BME280;32455;43.430;23.136;2023-04-23T13:37:43;97941.94;;;20.84;40.33
46722;BME280;32455;43.430;23.136;2023-04-23T13:40:28;97945.47;;;21.22;39.57
46722;BME280;32455;43.430;23.136;2023-04-23T13:43:14;97935.03;;;21.43;39.42
46722;BME280;32455;43.430;23.136;2023-04-23T13:45:59;97937.88;;;21.00;40.97
46722;BME280;32455;43.430;23.136;2023-04-23T13:48:45;97916.00;;;21.19;40.71
46722;BME280;32455;43.430;23.136;2023-04-23T13:51:31;97926.75;;;21.48;38.85
46722;BME280;32455;43.430;23.136;2023-04-23T13:54:16;97931.16;;;21.11;39.64
46722;BME280;32455;43.430;23.136;2023-04-23T13:57:02;97913.59;;;20.80;43.24
46722;BME280;32455;43.430;23.136;2023-04-23T13:59:47;97911.34;;;21.19;40.19
46722;BME280;32455;43.430;23.136;2023-04-23T14:02:32;97908.69;;;21.33;39.27
46722;BME280;32455;43.430;23.136;2023-04-23T14:05:18;97907.34;;;21.31;38.65
46722;BME280;32455;43.430;23.136;2023-04-23T14:08:03;97903.00;;;21.11;40.58
46722;BME280;32455;43.430;23.136;2023-04-23T14:10:48;97912.75;;;21.17;39.66
46722;BME280;32455;43.430;23.136;2023-04-23T14:13:34;97899.13;;;21.31;39.89
46722;BME280;32455;43.430;23.136;2023-04-23T14:16:20;97905.50;;;21.26;38.92
46722;BME280;32455;43.430;23.136;2023-04-23T14:19:05;97898.53;;;20.82;39.36
46722;BME280;32455;43.430;23.136;2023-04-23T14:21:51;97914.69;;;19.64;42.67
46722;BME280;32455;43.430;23.136;2023-04-23T14:24:44;97916.34;;;18.91;46.54
46722;BME280;32455;43.430;23.136;2023-04-23T14:27:36;97918.78;;;19.32;45.53
46722;BME280;32455;43.430;23.136;2023-04-23T14:30:24;97923.28;;;19.47;46.51